Terminal Aerodrome Forecast
Issued by NWS

Home | Current Version | Previous Version | Graphics & Text | Print | Product List | Glossary On
Versions: 1 2 3 4 5 6 7 8 9 10 11 12 13 14 15 16 17 18 19 20 21
383
FTUS43 KMPX 251314 AAA
TAFAXN
TAF AMD
KAXN 251314Z 2513/2612 10010KT P6SM BKN250
     FM251430 12011G17KT 6SM -TSRA BR SCT020 OVC050CB
      TEMPO 2515/2516 22015G25KT 3SM -TSRA
     FM251700 13014G21KT P6SM VCSH OVC050
     FM252200 15013G20KT P6SM BKN050 OVC100
     FM260300 15006KT P6SM SCT250
     FM260800 20006KT P6SM FEW250=

USA.gov is the U.S. government's official web portal to all federal, state and local government web resources and services.